sensor_id;sensor_type;location;lat;lon;timestamp;pressure;altitude;pressure_sealevel;temperature;humidity
9277;BME280;4676;42.678;23.244;2022-10-24T00:01:14;94806.22;;;11.57;100.00
9277;BME280;4676;42.678;23.244;2022-10-24T00:03:43;94807.97;;;11.54;100.00
9277;BME280;4676;42.678;23.244;2022-10-24T00:06:11;94814.84;;;11.51;100.00
9277;BME280;4676;42.678;23.244;2022-10-24T00:08:39;94805.50;;;11.53;100.00
9277;BME280;4676;42.678;23.244;2022-10-24T00:11:08;94795.50;;;11.47;100.00
9277;BME280;4676;42.678;23.244;2022-10-24T00:13:35;94807.34;;;11.48;100.00
9277;BME280;4676;42.678;23.244;2022-10-24T00:16:02;94808.31;;;11.44;100.00
9277;BME280;4676;42.678;23.244;2022-10-24T00:18:29;94805.78;;;11.44;100.00
9277;BME280;4676;42.678;23.244;2022-10-24T00:20:57;94797.03;;;11.52;100.00
9277;BME280;4676;42.678;23.244;2022-10-24T00:23:24;94798.22;;;11.42;100.00
9277;BME280;4676;42.678;23.244;2022-10-24T00:25:50;94788.94;;;11.41;100.00
9277;BME280;4676;42.678;23.244;2022-10-24T00:28:17;94787.97;;;11.45;100.00
9277;BME280;4676;42.678;23.244;2022-10-24T00:30:44;94784.69;;;11.42;100.00
9277;BME280;4676;42.678;23.244;2022-10-24T00:33:11;94791.56;;;11.38;100.00
9277;BME280;4676;42.678;23.244;2022-10-24T00:35:38;94786.44;;;11.40;100.00
9277;BME280;4676;42.678;23.244;2022-10-24T00:38:06;94790.59;;;11.42;100.00
9277;BME280;4676;42.678;23.244;2022-10-24T00:40:32;94788.81;;;11.46;100.00
9277;BME280;4676;42.678;23.244;2022-10-24T00:42:59;94784.34;;;11.52;100.00
9277;BME280;4676;42.678;23.244;2022-10-24T00:45:39;94762.72;;;11.41;100.00
9277;BME280;4676;42.678;23.244;2022-10-24T00:48:13;94789.66;;;11.45;100.00
9277;BME280;4676;42.678;23.244;2022-10-24T00:50:40;94788.28;;;11.36;100.00
9277;BME280;4676;42.678;23.244;2022-10-24T00:53:09;94779.19;;;11.29;100.00
9277;BME280;4676;42.678;23.244;2022-10-24T00:55:36;94789.91;;;11.37;100.00
9277;BME280;4676;42.678;23.244;2022-10-24T00:58:04;94792.41;;;11.39;100.00
9277;BME280;4676;42.678;23.244;2022-10-24T01:00:32;94775.38;;;11.16;100.00
9277;BME280;4676;42.678;23.244;2022-10-24T01:03:00;94786.94;;;11.25;100.00
9277;BME280;4676;42.678;23.244;2022-10-24T01:05:33;94793.94;;;11.18;100.00
9277;BME280;4676;42.678;23.244;2022-10-24T01:08:12;94787.19;;;11.17;100.00
9277;BME280;4676;42.678;23.244;2022-10-24T01:10:45;94788.13;;;11.15;100.00
9277;BME280;4676;42.678;23.244;2022-10-24T01:13:21;94779.66;;;11.14;100.00
9277;BME280;4676;42.678;23.244;2022-10-24T01:15:57;94785.75;;;11.09;100.00
9277;BME280;4676;42.678;23.244;2022-10-24T01:18:29;94787.50;;;11.07;100.00
9277;BME280;4676;42.678;23.244;2022-10-24T01:21:14;94789.19;;;11.08;100.00
9277;BME280;4676;42.678;23.244;2022-10-24T01:23:59;94797.13;;;10.97;100.00
9277;BME280;4676;42.678;23.244;2022-10-24T01:26:51;94792.81;;;10.99;100.00
9277;BME280;4676;42.678;23.244;2022-10-24T01:29:38;94787.06;;;10.94;100.00
9277;BME280;4676;42.678;23.244;2022-10-24T01:32:15;94796.53;;;10.87;100.00
9277;BME280;4676;42.678;23.244;2022-10-24T01:34:47;94800.06;;;10.83;100.00
9277;BME280;4676;42.678;23.244;2022-10-24T01:37:19;94804.34;;;10.81;100.00
9277;BME280;4676;42.678;23.244;2022-10-24T01:39:51;94803.69;;;10.75;100.00
9277;BME280;4676;42.678;23.244;2022-10-24T01:42:21;94773.63;;;10.63;100.00
9277;BME280;4676;42.678;23.244;2022-10-24T01:44:54;94794.31;;;10.77;100.00
9277;BME280;4676;42.678;23.244;2022-10-24T01:47:24;94794.31;;;10.77;100.00
9277;BME280;4676;42.678;23.244;2022-10-24T01:49:54;94796.22;;;10.70;100.00
9277;BME280;4676;42.678;23.244;2022-10-24T01:52:26;94785.53;;;10.59;100.00
9277;BME280;4676;42.678;23.244;2022-10-24T01:54:54;94778.88;;;10.57;100.00
9277;BME280;4676;42.678;23.244;2022-10-24T01:57:26;94782.75;;;10.68;100.00
9277;BME280;4676;42.678;23.244;2022-10-24T01:59:54;94782.88;;;10.64;100.00
9277;BME280;4676;42.678;23.244;2022-10-24T02:02:26;94776.25;;;10.60;100.00
9277;BME280;4676;42.678;23.244;2022-10-24T02:04:57;94780.72;;;10.51;100.00
9277;BME280;4676;42.678;23.244;2022-10-24T02:07:31;94785.06;;;10.48;100.00
9277;BME280;4676;42.678;23.244;2022-10-24T02:10:02;94785.81;;;10.50;100.00
9277;BME280;4676;42.678;23.244;2022-10-24T02:12:31;94787.81;;;10.39;100.00
9277;BME280;4676;42.678;23.244;2022-10-24T02:15:02;94788.75;;;10.36;100.00
9277;BME280;4676;42.678;23.244;2022-10-24T02:17:30;94782.09;;;10.34;100.00
9277;BME280;4676;42.678;23.244;2022-10-24T02:19:57;94785.28;;;10.39;100.00
9277;BME280;4676;42.678;23.244;2022-10-24T02:22:28;94788.56;;;10.42;100.00
9277;BME280;4676;42.678;23.244;2022-10-24T02:24:59;94783.78;;;10.33;100.00
9277;BME280;4676;42.678;23.244;2022-10-24T02:27:31;94782.19;;;10.29;100.00
9277;BME280;4676;42.678;23.244;2022-10-24T02:30:04;94746.38;;;10.11;100.00
9277;BME280;4676;42.678;23.244;2022-10-24T02:32:35;94792.03;;;10.40;100.00
9277;BME280;4676;42.678;23.244;2022-10-24T02:35:04;94787.81;;;10.40;100.00
9277;BME280;4676;42.678;23.244;2022-10-24T02:37:34;94782.72;;;10.40;100.00
9277;BME280;4676;42.678;23.244;2022-10-24T02:40:05;94787.06;;;10.37;100.00
9277;BME280;4676;42.678;23.244;2022-10-24T02:42:33;94785.28;;;10.39;100.00
9277;BME280;4676;42.678;23.244;2022-10-24T02:45:05;94786.78;;;10.46;100.00
9277;BME280;4676;42.678;23.244;2022-10-24T02:47:34;94791.81;;;10.47;100.00
9277;BME280;4676;42.678;23.244;2022-10-24T02:50:01;94790.28;;;10.42;100.00
9277;BME280;4676;42.678;23.244;2022-10-24T02:52:28;94792.06;;;10.38;100.00
9277;BME280;4676;42.678;23.244;2022-10-24T02:54:55;94784.63;;;10.34;100.00
9277;BME280;4676;42.678;23.244;2022-10-24T02:57:22;94791.91;;;10.44;100.00
9277;BME280;4676;42.678;23.244;2022-10-24T02:59:51;94782.94;;;10.33;100.00
9277;BME280;4676;42.678;23.244;2022-10-24T03:02:19;94785.19;;;10.43;100.00
9277;BME280;4676;42.678;23.244;2022-10-24T03:04:46;94780.94;;;10.44;100.00
9277;BME280;4676;42.678;23.244;2022-10-24T03:07:13;94783.78;;;10.33;100.00
9277;BME280;4676;42.678;23.244;2022-10-24T03:09:39;94783.13;;;10.27;100.00
9277;BME280;4676;42.678;23.244;2022-10-24T03:12:06;94782.28;;;10.26;100.00
9277;BME280;4676;42.678;23.244;2022-10-24T03:14:33;94776.41;;;10.24;100.00
9277;BME280;4676;42.678;23.244;2022-10-24T03:17:00;94781.47;;;10.26;100.00
9277;BME280;4676;42.678;23.244;2022-10-24T03:19:28;94778.19;;;10.21;100.00
9277;BME280;4676;42.678;23.244;2022-10-24T03:21:55;94770.84;;;10.12;100.00
9277;BME280;4676;42.678;23.244;2022-10-24T03:24:21;94771.69;;;10.12;100.00
9277;BME280;4676;42.678;23.244;2022-10-24T03:26:48;94770.94;;;10.09;100.00
9277;BME280;4676;42.678;23.244;2022-10-24T03:29:16;94785.16;;;10.13;100.00
9277;BME280;4676;42.678;23.244;2022-10-24T03:31:43;94776.66;;;10.17;100.00
9277;BME280;4676;42.678;23.244;2022-10-24T03:34:10;94778.53;;;10.09;100.00
9277;BME280;4676;42.678;23.244;2022-10-24T03:36:38;94773.41;;;10.10;100.00
9277;BME280;4676;42.678;23.244;2022-10-24T03:39:05;94772.66;;;10.07;100.00
9277;BME280;4676;42.678;23.244;2022-10-24T03:41:32;94777.22;;;9.94;100.00
9277;BME280;4676;42.678;23.244;2022-10-24T03:43:59;94782.84;;;10.05;100.00
9277;BME280;4676;42.678;23.244;2022-10-24T03:46:25;94778.75;;;9.99;100.00
9277;BME280;4676;42.678;23.244;2022-10-24T03:48:52;94782.41;;;9.89;100.00
9277;BME280;4676;42.678;23.244;2022-10-24T03:51:19;94788.03;;;10.00;100.00
9277;BME280;4676;42.678;23.244;2022-10-24T03:53:47;94780.91;;;9.82;100.00
9277;BME280;4676;42.678;23.244;2022-10-24T03:56:14;94776.44;;;9.92;100.00
9277;BME280;4676;42.678;23.244;2022-10-24T03:58:40;94774.22;;;9.80;100.00
9277;BME280;4676;42.678;23.244;2022-10-24T04:01:07;94775.22;;;9.74;100.00
9277;BME280;4676;42.678;23.244;2022-10-24T04:03:41;94776.84;;;9.77;100.00
9277;BME280;4676;42.678;23.244;2022-10-24T04:06:07;94776.19;;;9.70;100.00
9277;BME280;4676;42.678;23.244;2022-10-24T04:08:34;94759.31;;;9.69;100.00
9277;BME280;4676;42.678;23.244;2022-10-24T04:11:02;94765.03;;;9.77;100.00
9277;BME280;4676;42.678;23.244;2022-10-24T04:13:29;94765.91;;;9.75;100.00
9277;BME280;4676;42.678;23.244;2022-10-24T04:15:56;94767.66;;;9.73;100.00
9277;BME280;4676;42.678;23.244;2022-10-24T04:18:23;94761.03;;;9.69;100.00
9277;BME280;4676;42.678;23.244;2022-10-24T04:20:50;94758.53;;;9.67;100.00
9277;BME280;4676;42.678;23.244;2022-10-24T04:23:17;94768.59;;;9.69;100.00
9277;BME280;4676;42.678;23.244;2022-10-24T04:25:44;94771.72;;;9.78;100.00
9277;BME280;4676;42.678;23.244;2022-10-24T04:28:13;94770.16;;;9.74;100.00
9277;BME280;4676;42.678;23.244;2022-10-24T04:30:40;94772.53;;;9.80;100.00
9277;BME280;4676;42.678;23.244;2022-10-24T04:33:06;94769.28;;;9.75;100.00
9277;BME280;4676;42.678;23.244;2022-10-24T04:35:33;94776.94;;;9.74;100.00
9277;BME280;4676;42.678;23.244;2022-10-24T04:38:00;94777.88;;;9.70;100.00
9277;BME280;4676;42.678;23.244;2022-10-24T04:40:27;94772.84;;;9.68;100.00
9277;BME280;4676;42.678;23.244;2022-10-24T04:42:54;94780.50;;;9.67;100.00
9277;BME280;4676;42.678;23.244;2022-10-24T04:45:22;94779.53;;;9.71;100.00
9277;BME280;4676;42.678;23.244;2022-10-24T04:47:49;94775.34;;;9.70;100.00
9277;BME280;4676;42.678;23.244;2022-10-24T04:50:16;94786.06;;;9.79;100.00
9277;BME280;4676;42.678;23.244;2022-10-24T04:52:43;94774.16;;;9.83;100.00
9277;BME280;4676;42.678;23.244;2022-10-24T04:55:09;94777.59;;;9.80;100.00
9277;BME280;4676;42.678;23.244;2022-10-24T04:57:36;94783.44;;;9.82;100.00
9277;BME280;4676;42.678;23.244;2022-10-24T05:00:04;94785.13;;;9.82;100.00
9277;BME280;4676;42.678;23.244;2022-10-24T05:02:33;94786.78;;;9.84;100.00
9277;BME280;4676;42.678;23.244;2022-10-24T05:04:59;94788.63;;;9.78;100.00
9277;BME280;4676;42.678;23.244;2022-10-24T05:07:26;94786.13;;;9.76;100.00
9277;BME280;4676;42.678;23.244;2022-10-24T05:09:53;94788.63;;;9.78;100.00
9277;BME280;4676;42.678;23.244;2022-10-24T05:12:19;94786.91;;;9.78;100.00
9277;BME280;4676;42.678;23.244;2022-10-24T05:14:46;94766.84;;;9.72;100.00
9277;BME280;4676;42.678;23.244;2022-10-24T05:17:13;94790.84;;;9.90;100.00
9277;BME280;4676;42.678;23.244;2022-10-24T05:19:42;94791.50;;;9.96;100.00
9277;BME280;4676;42.678;23.244;2022-10-24T05:22:08;94788.69;;;10.07;100.00
9277;BME280;4676;42.678;23.244;2022-10-24T05:24:35;94778.06;;;9.94;100.00
9277;BME280;4676;42.678;23.244;2022-10-24T05:27:02;94783.78;;;10.01;100.00
9277;BME280;4676;42.678;23.244;2022-10-24T05:29:29;94791.19;;;10.09;100.00
9277;BME280;4676;42.678;23.244;2022-10-24T05:31:55;94792.88;;;10.08;100.00
9277;BME280;4676;42.678;23.244;2022-10-24T05:34:22;94795.38;;;10.10;100.00
9277;BME280;4676;42.678;23.244;2022-10-24T05:36:50;94787.69;;;10.13;100.00
9277;BME280;4676;42.678;23.244;2022-10-24T05:39:17;94792.53;;;10.22;100.00
9277;BME280;4676;42.678;23.244;2022-10-24T05:41:44;94796.84;;;10.18;100.00
9277;BME280;4676;42.678;23.244;2022-10-24T05:44:11;94796.69;;;10.24;100.00
9277;BME280;4676;42.678;23.244;2022-10-24T05:46:38;94799.81;;;10.34;100.00
9277;BME280;4676;42.678;23.244;2022-10-24T05:49:05;94802.16;;;10.40;100.00
9277;BME280;4676;42.678;23.244;2022-10-24T05:51:32;94811.78;;;10.58;100.00
9277;BME280;4676;42.678;23.244;2022-10-24T05:54:00;94811.69;;;10.61;100.00
9277;BME280;4676;42.678;23.244;2022-10-24T05:58:59;94812.69;;;10.85;100.00
9277;BME280;4676;42.678;23.244;2022-10-24T06:01:27;94804.22;;;10.86;100.00
9277;BME280;4676;42.678;23.244;2022-10-24T06:03:54;94817.97;;;11.05;100.00
9277;BME280;4676;42.678;23.244;2022-10-24T06:06:21;94823.75;;;11.10;100.00
9277;BME280;4676;42.678;23.244;2022-10-24T06:08:49;94827.06;;;11.12;100.00
9277;BME280;4676;42.678;23.244;2022-10-24T06:11:17;94830.91;;;11.25;100.00
9277;BME280;4676;42.678;23.244;2022-10-24T06:13:45;94821.19;;;11.38;100.00
9277;BME280;4676;42.678;23.244;2022-10-24T06:16:12;94821.06;;;11.42;100.00
9277;BME280;4676;42.678;23.244;2022-10-24T06:18:39;94816.28;;;11.60;100.00
9277;BME280;4676;42.678;23.244;2022-10-24T06:21:06;94815.03;;;11.73;100.00
9277;BME280;4676;42.678;23.244;2022-10-24T06:23:34;94817.78;;;11.65;100.00
9277;BME280;4676;42.678;23.244;2022-10-24T06:28:37;94812.16;;;11.56;100.00
9277;BME280;4676;42.678;23.244;2022-10-24T06:31:04;94824.06;;;11.81;100.00
9277;BME280;4676;42.678;23.244;2022-10-24T06:33:32;94825.88;;;11.78;100.00
9277;BME280;4676;42.678;23.244;2022-10-24T06:36:00;94824.19;;;11.77;100.00
9277;BME280;4676;42.678;23.244;2022-10-24T06:38:29;94819.13;;;11.77;100.00
9277;BME280;4676;42.678;23.244;2022-10-24T06:40:56;94825.91;;;11.76;100.00
9277;BME280;4676;42.678;23.244;2022-10-24T06:43:22;94831.50;;;11.86;100.00
9277;BME280;4676;42.678;23.244;2022-10-24T06:45:51;94834.00;;;12.12;100.00
9277;BME280;4676;42.678;23.244;2022-10-24T06:48:17;94835.72;;;12.12;100.00
9277;BME280;4676;42.678;23.244;2022-10-24T06:50:44;94840.69;;;12.15;100.00
9277;BME280;4676;42.678;23.244;2022-10-24T06:53:11;94845.22;;;12.31;100.00
9277;BME280;4676;42.678;23.244;2022-10-24T06:55:38;94848.19;;;12.42;100.00
9277;BME280;4676;42.678;23.244;2022-10-24T06:58:04;94854.47;;;12.32;100.00
9277;BME280;4676;42.678;23.244;2022-10-24T07:00:32;94857.59;;;12.40;100.00
9277;BME280;4676;42.678;23.244;2022-10-24T07:03:00;94852.00;;;12.31;100.00
9277;BME280;4676;42.678;23.244;2022-10-24T07:05:27;94851.78;;;12.37;100.00
9277;BME280;4676;42.678;23.244;2022-10-24T07:07:53;94851.84;;;12.35;100.00
9277;BME280;4676;42.678;23.244;2022-10-24T07:10:20;94828.59;;;12.21;100.00
9277;BME280;4676;42.678;23.244;2022-10-24T07:12:47;94846.97;;;12.52;100.00
9277;BME280;4676;42.678;23.244;2022-10-24T07:15:14;94836.66;;;12.57;100.00
9277;BME280;4676;42.678;23.244;2022-10-24T07:17:42;94842.16;;;12.70;100.00
9277;BME280;4676;42.678;23.244;2022-10-24T07:20:12;94838.06;;;12.66;100.00
9277;BME280;4676;42.678;23.244;2022-10-24T07:22:40;94840.59;;;12.66;100.00
9277;BME280;4676;42.678;23.244;2022-10-24T07:25:08;94838.59;;;12.74;100.00
9277;BME280;4676;42.678;23.244;2022-10-24T07:27:34;94838.63;;;12.95;100.00
9277;BME280;4676;42.678;23.244;2022-10-24T07:30:01;94825.25;;;12.90;100.00
9277;BME280;4676;42.678;23.244;2022-10-24T07:32:28;94830.94;;;12.97;100.00
9277;BME280;4676;42.678;23.244;2022-10-24T07:34:55;94836.44;;;13.10;100.00
9277;BME280;4676;42.678;23.244;2022-10-24T07:37:23;94841.22;;;13.17;100.00
9277;BME280;4676;42.678;23.244;2022-10-24T07:39:50;94830.59;;;13.29;100.00
9277;BME280;4676;42.678;23.244;2022-10-24T07:42:17;94829.81;;;13.27;100.00
9277;BME280;4676;42.678;23.244;2022-10-24T07:44:44;94845.34;;;13.43;100.00
9277;BME280;4676;42.678;23.244;2022-10-24T07:47:11;94842.97;;;13.38;100.00
9277;BME280;4676;42.678;23.244;2022-10-24T07:49:37;94840.66;;;13.54;100.00
9277;BME280;4676;42.678;23.244;2022-10-24T07:52:05;94819.56;;;13.50;100.00
9277;BME280;4676;42.678;23.244;2022-10-24T07:54:33;94833.09;;;13.73;100.00
9277;BME280;4676;42.678;23.244;2022-10-24T07:56:59;94833.75;;;13.78;100.00
9277;BME280;4676;42.678;23.244;2022-10-24T07:59:28;94828.69;;;13.76;100.00
9277;BME280;4676;42.678;23.244;2022-10-24T08:01:55;94829.09;;;13.87;100.00
9277;BME280;4676;42.678;23.244;2022-10-24T08:04:21;94829.97;;;13.86;100.00
9277;BME280;4676;42.678;23.244;2022-10-24T08:06:48;94829.53;;;13.97;100.00
9277;BME280;4676;42.678;23.244;2022-10-24T08:09:15;94825.34;;;13.96;100.00
9277;BME280;4676;42.678;23.244;2022-10-24T08:11:43;94819.16;;;14.01;100.00
9277;BME280;4676;42.678;23.244;2022-10-24T08:14:10;94827.47;;;14.07;100.00
9277;BME280;4676;42.678;23.244;2022-10-24T08:16:37;94830.44;;;14.16;100.00
9277;BME280;4676;42.678;23.244;2022-10-24T08:19:06;94807.50;;;14.36;100.00
9277;BME280;4676;42.678;23.244;2022-10-24T08:21:33;94823.34;;;14.43;100.00
9277;BME280;4676;42.678;23.244;2022-10-24T08:24:00;94816.47;;;14.45;100.00
9277;BME280;4676;42.678;23.244;2022-10-24T08:26:27;94818.28;;;14.62;100.00
9277;BME280;4676;42.678;23.244;2022-10-24T08:28:55;94822.97;;;14.71;100.00
9277;BME280;4676;42.678;23.244;2022-10-24T08:31:23;94774.28;;;14.57;100.00
9277;BME280;4676;42.678;23.244;2022-10-24T08:33:51;94805.22;;;14.88;100.00
9277;BME280;4676;42.678;23.244;2022-10-24T08:36:21;94817.09;;;15.25;100.00
9277;BME280;4676;42.678;23.244;2022-10-24T08:38:48;94798.53;;;15.40;100.00
9277;BME280;4676;42.678;23.244;2022-10-24T08:41:21;94811.56;;;15.70;100.00
9277;BME280;4676;42.678;23.244;2022-10-24T08:43:50;94811.66;;;15.85;100.00
9277;BME280;4676;42.678;23.244;2022-10-24T08:46:36;94804.59;;;16.08;93.08
9277;BME280;4676;42.678;23.244;2022-10-24T08:49:11;94799.00;;;16.17;96.85
9277;BME280;4676;42.678;23.244;2022-10-24T08:51:44;94800.25;;;16.42;93.17
9277;BME280;4676;42.678;23.244;2022-10-24T08:54:15;94792.75;;;16.55;89.11
9277;BME280;4676;42.678;23.244;2022-10-24T08:56:44;94795.78;;;16.63;88.28
9277;BME280;4676;42.678;23.244;2022-10-24T08:59:11;94794.06;;;16.79;86.48
9277;BME280;4676;42.678;23.244;2022-10-24T09:01:43;94790.50;;;16.82;85.00
9277;BME280;4676;42.678;23.244;2022-10-24T09:04:15;94791.59;;;16.93;82.64
9277;BME280;4676;42.678;23.244;2022-10-24T09:06:44;94792.44;;;16.94;82.90
9277;BME280;4676;42.678;23.244;2022-10-24T09:09:18;94789.63;;;16.98;82.75
9277;BME280;4676;42.678;23.244;2022-10-24T09:11:49;94788.06;;;17.12;81.18
9277;BME280;4676;42.678;23.244;2022-10-24T09:14:18;94791.78;;;17.22;81.28
9277;BME280;4676;42.678;23.244;2022-10-24T09:16:50;94780.38;;;17.27;79.67
9277;BME280;4676;42.678;23.244;2022-10-24T09:19:20;94787.47;;;17.38;80.65
9277;BME280;4676;42.678;23.244;2022-10-24T09:21:48;94790.84;;;17.38;79.66
9277;BME280;4676;42.678;23.244;2022-10-24T09:24:23;94787.69;;;17.49;79.84
9277;BME280;4676;42.678;23.244;2022-10-24T09:26:53;94782.09;;;17.58;79.89
9277;BME280;4676;42.678;23.244;2022-10-24T09:29:20;94781.38;;;17.70;79.63
9277;BME280;4676;42.678;23.244;2022-10-24T09:31:48;94774.63;;;17.69;78.31
9277;BME280;4676;42.678;23.244;2022-10-24T09:34:16;94778.09;;;17.68;75.68
9277;BME280;4676;42.678;23.244;2022-10-24T09:36:43;94771.31;;;17.67;76.57
9277;BME280;4676;42.678;23.244;2022-10-24T09:39:26;94775.44;;;17.70;76.74
9277;BME280;4676;42.678;23.244;2022-10-24T09:41:54;94777.09;;;17.71;77.16
9277;BME280;4676;42.678;23.244;2022-10-24T09:44:29;94776.25;;;17.70;77.96
9277;BME280;4676;42.678;23.244;2022-10-24T09:46:58;94771.34;;;17.81;75.48
9277;BME280;4676;42.678;23.244;2022-10-24T09:49:31;94768.34;;;17.89;76.17
9277;BME280;4676;42.678;23.244;2022-10-24T09:52:02;94766.91;;;17.99;73.04
9277;BME280;4676;42.678;23.244;2022-10-24T09:54:31;94758.75;;;17.92;74.31
9277;BME280;4676;42.678;23.244;2022-10-24T09:57:04;94754.50;;;17.91;74.90
9277;BME280;4676;42.678;23.244;2022-10-24T09:59:38;94761.50;;;18.04;74.38
9277;BME280;4676;42.678;23.244;2022-10-24T10:02:23;94755.91;;;17.97;74.26
9277;BME280;4676;42.678;23.244;2022-10-24T10:05:15;94751.75;;;17.94;76.19
9277;BME280;4676;42.678;23.244;2022-10-24T10:07:43;94754.72;;;18.03;75.50
9277;BME280;4676;42.678;23.244;2022-10-24T10:10:26;94750.06;;;18.09;75.73
9277;BME280;4676;42.678;23.244;2022-10-24T10:12:56;94745.03;;;18.22;75.21
9277;BME280;4676;42.678;23.244;2022-10-24T10:15:27;94747.31;;;18.40;72.10
9277;BME280;4676;42.678;23.244;2022-10-24T10:17:58;94742.41;;;18.52;71.12
9277;BME280;4676;42.678;23.244;2022-10-24T10:20:30;94713.16;;;18.40;72.31
9277;BME280;4676;42.678;23.244;2022-10-24T10:23:15;94740.19;;;18.74;69.75
9277;BME280;4676;42.678;23.244;2022-10-24T10:25:42;94748.16;;;18.69;70.30
9277;BME280;4676;42.678;23.244;2022-10-24T10:28:18;94747.06;;;18.73;70.34
9277;BME280;4676;42.678;23.244;2022-10-24T10:30:48;94738.16;;;18.79;70.25
9277;BME280;4676;42.678;23.244;2022-10-24T10:33:22;94732.09;;;18.80;69.42
9277;BME280;4676;42.678;23.244;2022-10-24T10:35:59;94718.78;;;18.87;70.06
9277;BME280;4676;42.678;23.244;2022-10-24T10:38:47;94726.28;;;18.90;69.10
9277;BME280;4676;42.678;23.244;2022-10-24T10:41:26;94732.19;;;18.92;69.86
9277;BME280;4676;42.678;23.244;2022-10-24T10:44:06;94718.28;;;19.09;69.80
9277;BME280;4676;42.678;23.244;2022-10-24T10:46:45;94713.75;;;19.13;68.14
9277;BME280;4676;42.678;23.244;2022-10-24T10:49:23;94711.19;;;19.13;67.59
9277;BME280;4676;42.678;23.244;2022-10-24T10:51:57;94716.38;;;19.25;66.72
9277;BME280;4676;42.678;23.244;2022-10-24T10:57:29;94705.19;;;19.39;67.50
9277;BME280;4676;42.678;23.244;2022-10-24T11:00:08;94701.81;;;19.65;64.95
9277;BME280;4676;42.678;23.244;2022-10-24T11:03:01;94702.22;;;19.59;65.74
9277;BME280;4676;42.678;23.244;2022-10-24T11:05:48;94697.78;;;19.61;66.14
9277;BME280;4676;42.678;23.244;2022-10-24T11:08:30;94682.03;;;19.53;65.72
9277;BME280;4676;42.678;23.244;2022-10-24T11:11:07;94690.28;;;19.71;65.92
9277;BME280;4676;42.678;23.244;2022-10-24T11:13:39;94691.94;;;19.84;63.78
9277;BME280;4676;42.678;23.244;2022-10-24T11:16:11;94679.69;;;19.88;63.76
9277;BME280;4676;42.678;23.244;2022-10-24T11:18:43;94678.16;;;19.85;64.61
9277;BME280;4676;42.678;23.244;2022-10-24T11:21:13;94683.09;;;19.88;63.36
9277;BME280;4676;42.678;23.244;2022-10-24T11:23:45;94677.56;;;19.94;64.96
9277;BME280;4676;42.678;23.244;2022-10-24T11:26:16;94684.13;;;19.99;65.40
9277;BME280;4676;42.678;23.244;2022-10-24T11:28:49;94668.56;;;20.13;64.89
9277;BME280;4676;42.678;23.244;2022-10-24T11:31:21;94666.00;;;20.13;63.94
9277;BME280;4676;42.678;23.244;2022-10-24T11:33:53;94667.88;;;20.36;61.64
9277;BME280;4676;42.678;23.244;2022-10-24T11:36:25;94662.31;;;20.29;62.43
9277;BME280;4676;42.678;23.244;2022-10-24T11:38:57;94652.13;;;20.28;62.26
9277;BME280;4676;42.678;23.244;2022-10-24T11:41:38;94651.38;;;20.26;62.92
9277;BME280;4676;42.678;23.244;2022-10-24T11:44:17;94650.78;;;20.35;62.32
9277;BME280;4676;42.678;23.244;2022-10-24T11:46:52;94649.53;;;20.40;62.37
9277;BME280;4676;42.678;23.244;2022-10-24T11:49:24;94645.19;;;20.41;63.30
9277;BME280;4676;42.678;23.244;2022-10-24T11:51:59;94644.03;;;20.45;61.52
9277;BME280;4676;42.678;23.244;2022-10-24T11:54:33;94635.34;;;20.59;61.22
9277;BME280;4676;42.678;23.244;2022-10-24T11:57:11;94649.56;;;20.64;61.66
9277;BME280;4676;42.678;23.244;2022-10-24T11:59:41;94635.78;;;20.65;61.52
9277;BME280;4676;42.678;23.244;2022-10-24T12:02:43;94639.66;;;20.71;60.54
9277;BME280;4676;42.678;23.244;2022-10-24T12:05:43;94626.00;;;20.81;61.25
9277;BME280;4676;42.678;23.244;2022-10-24T12:08:35;94623.53;;;20.80;61.62
9277;BME280;4676;42.678;23.244;2022-10-24T12:11:16;94628.38;;;20.84;60.80
9277;BME280;4676;42.678;23.244;2022-10-24T12:13:57;94622.28;;;20.85;60.56
9277;BME280;4676;42.678;23.244;2022-10-24T12:16:38;94627.53;;;20.84;61.46
9277;BME280;4676;42.678;23.244;2022-10-24T12:19:13;94623.59;;;20.91;60.17
9277;BME280;4676;42.678;23.244;2022-10-24T12:21:45;94618.81;;;20.98;60.56
9277;BME280;4676;42.678;23.244;2022-10-24T12:24:22;94609.09;;;21.14;59.56
9277;BME280;4676;42.678;23.244;2022-10-24T12:26:55;94613.19;;;21.16;59.44
9277;BME280;4676;42.678;23.244;2022-10-24T12:29:24;94616.59;;;21.17;58.83
9277;BME280;4676;42.678;23.244;2022-10-24T12:31:51;94603.94;;;21.14;60.53
9277;BME280;4676;42.678;23.244;2022-10-24T12:34:41;94597.66;;;21.05;60.36
9277;BME280;4676;42.678;23.244;2022-10-24T12:37:11;94606.91;;;21.08;60.68
9277;BME280;4676;42.678;23.244;2022-10-24T12:39:42;94593.22;;;21.07;60.67
9277;BME280;4676;42.678;23.244;2022-10-24T12:42:13;94611.25;;;21.31;59.80
9277;BME280;4676;42.678;23.244;2022-10-24T12:44:43;94614.44;;;21.34;57.20
9277;BME280;4676;42.678;23.244;2022-10-24T12:47:32;94597.16;;;21.24;57.87
9277;BME280;4676;42.678;23.244;2022-10-24T12:53:19;94596.84;;;21.39;57.95
9277;BME280;4676;42.678;23.244;2022-10-24T12:56:23;94599.06;;;21.33;57.88
9277;BME280;4676;42.678;23.244;2022-10-24T12:58:57;94603.75;;;21.28;58.71
9277;BME280;4676;42.678;23.244;2022-10-24T13:01:28;94603.47;;;21.20;58.84
9277;BME280;4676;42.678;23.244;2022-10-24T13:07:19;94598.41;;;21.18;57.85
9277;BME280;4676;42.678;23.244;2022-10-24T13:09:57;94602.66;;;21.19;56.96
9277;BME280;4676;42.678;23.244;2022-10-24T13:12:44;94599.75;;;21.24;57.95
9277;BME280;4676;42.678;23.244;2022-10-24T13:15:28;94598.41;;;21.18;57.36
9277;BME280;4676;42.678;23.244;2022-10-24T13:18:11;94594.00;;;21.20;57.92
9277;BME280;4676;42.678;23.244;2022-10-24T13:20:42;94595.97;;;21.17;57.56
9277;BME280;4676;42.678;23.244;2022-10-24T13:23:14;94594.69;;;21.22;57.75
9277;BME280;4676;42.678;23.244;2022-10-24T13:25:42;94596.44;;;21.22;60.23
9277;BME280;4676;42.678;23.244;2022-10-24T13:28:32;94590.97;;;21.26;59.45
9277;BME280;4676;42.678;23.244;2022-10-24T13:31:38;94595.66;;;21.21;58.27
9277;BME280;4676;42.678;23.244;2022-10-24T13:34:13;94592.94;;;21.23;58.54
9277;BME280;4676;42.678;23.244;2022-10-24T13:36:41;94597.41;;;21.21;58.11
9277;BME280;4676;42.678;23.244;2022-10-24T13:39:13;94590.50;;;21.21;58.30